Terminal Aerodrome Forecast
Issued by NWS Tulsa, OK

Home | Current Version | Previous Version | Text Only | Print | Product List | Glossary On
Versions: 1 2 3 4 5 6 7 8 9 10 11 12 13 14 15
000
FTUS44 KTSA 292000 AAA
TAFFSM
TAF AMD
KFSM 292000Z 2920/3018 12007KT 3SM RA BR SCT015 BKN040 OVC060
      TEMPO 2921/3001 2SM +TSRA BKN015CB
     FM300100 20003KT 6SM -RA BKN035
      TEMPO 3001/3005 3SM TSRA BKN015CB
     FM300500 31004KT 5SM TSRA BKN025CB PROB30 3005/3011 P6SM -RA
      BKN025
     FM301100 27005KT P6SM BKN025
      TEMPO 3012/3015 5SM BR BKN015=

USA.gov is the U.S. government's official web portal to all federal, state and local government web resources and services.